createdAt,value
2018-08-12T00:00:38.537Z,15.02
2018-08-12T00:01:38.434Z,15.04
2018-08-12T00:02:38.333Z,14.97
2018-08-12T00:03:38.252Z,15.09
2018-08-12T00:04:38.135Z,15.07
2018-08-12T00:05:38.046Z,14.84
2018-08-12T00:06:37.943Z,14.86
2018-08-12T00:07:37.840Z,14.91
2018-08-12T00:08:37.747Z,14.86
2018-08-12T00:09:37.645Z,14.92
2018-08-12T00:10:37.557Z,14.88
2018-08-12T00:11:37.452Z,14.86
2018-08-12T00:12:37.347Z,14.86
2018-08-12T00:13:37.255Z,14.85
2018-08-12T00:14:37.152Z,14.73
2018-08-12T00:15:37.063Z,14.88
2018-08-12T00:16:36.959Z,14.81
2018-08-12T00:17:36.858Z,14.78
2018-08-12T00:18:37.014Z,14.81
2018-08-12T00:19:36.660Z,14.62
2018-08-12T00:20:36.573Z,14.63
2018-08-12T00:21:36.467Z,14.59
2018-08-12T00:22:36.364Z,14.63
2018-08-12T00:23:36.272Z,14.65
2018-08-12T00:24:36.169Z,14.54
2018-08-12T00:25:36.079Z,14.63
2018-08-12T00:26:35.975Z,14.54
2018-08-12T00:27:35.873Z,14.53
2018-08-12T00:28:35.781Z,14.60
2018-08-12T00:29:35.718Z,14.59
2018-08-12T00:30:35.575Z,14.55
2018-08-12T00:31:35.494Z,14.62
2018-08-12T00:32:35.380Z,14.62
2018-08-12T00:33:35.289Z,14.59
2018-08-12T00:34:35.186Z,14.58
2018-08-12T00:35:35.097Z,14.60
2018-08-12T00:36:34.992Z,14.53
2018-08-12T00:37:34.890Z,14.58
2018-08-12T00:38:35.048Z,14.58
2018-08-12T00:39:34.696Z,14.54
2018-08-12T00:40:34.603Z,14.55
2018-08-12T00:41:34.501Z,14.51
2018-08-12T00:42:34.400Z,14.55
2018-08-12T00:43:34.294Z,14.59
2018-08-12T00:44:34.202Z,14.54
2018-08-12T00:45:34.099Z,14.47
2018-08-12T00:46:34.009Z,14.54
2018-08-12T00:47:33.907Z,14.43
2018-08-12T00:48:33.803Z,14.47
2018-08-12T00:49:33.711Z,14.45
2018-08-12T00:50:33.608Z,14.45
2018-08-12T00:51:33.506Z,14.41
2018-08-12T00:52:33.415Z,14.41
2018-08-12T00:53:33.312Z,14.37
2018-08-12T00:54:33.219Z,14.40
2018-08-12T00:55:33.117Z,14.35
2018-08-12T00:56:33.014Z,14.40
2018-08-12T00:57:32.923Z,14.37
2018-08-12T00:58:33.073Z,14.30
2018-08-12T00:59:32.728Z,14.43
2018-08-12T01:00:32.624Z,14.30
2018-08-12T01:01:32.521Z,14.30
2018-08-12T01:02:32.432Z,14.20
2018-08-12T01:03:32.327Z,14.25
2018-08-12T01:04:32.225Z,14.26
2018-08-12T01:05:32.135Z,14.29
2018-08-12T01:06:32.032Z,14.18
2018-08-12T01:07:31.940Z,14.22
2018-08-12T01:08:31.836Z,14.18
2018-08-12T01:09:31.734Z,14.23
2018-08-12T01:10:31.642Z,14.17
2018-08-12T01:11:31.539Z,14.15
2018-08-12T01:12:31.436Z,14.15
2018-08-12T01:13:31.345Z,14.10
2018-08-12T01:14:31.242Z,14.10
2018-08-12T01:15:31.150Z,14.04
2018-08-12T01:16:31.047Z,13.93
2018-08-12T01:17:30.943Z,13.96
2018-08-12T01:18:30.853Z,13.97
2018-08-12T01:19:30.751Z,13.93
2018-08-12T01:20:30.646Z,13.86
2018-08-12T01:21:30.556Z,13.86
2018-08-12T01:22:30.452Z,13.85
2018-08-12T01:23:30.349Z,13.74
2018-08-12T01:24:30.260Z,13.71
2018-08-12T01:25:30.158Z,13.85
2018-08-12T01:26:30.053Z,13.79
2018-08-12T01:27:29.960Z,13.86
2018-08-12T01:28:29.858Z,13.83
2018-08-12T01:29:29.771Z,13.75
2018-08-12T01:30:29.664Z,13.77
2018-08-12T01:31:29.561Z,13.75
2018-08-12T01:32:29.469Z,13.72
2018-08-12T01:33:29.379Z,13.72
2018-08-12T01:34:29.263Z,13.68
2018-08-12T01:35:29.172Z,13.62
2018-08-12T01:36:29.069Z,13.60
2018-08-12T01:37:28.977Z,13.49
2018-08-12T01:38:29.174Z,13.57
2018-08-12T01:39:28.770Z,13.46
2018-08-12T01:40:28.672Z,13.49
2018-08-12T01:41:28.579Z,13.53
2018-08-12T01:42:28.475Z,13.46
2018-08-12T01:43:28.382Z,13.38
2018-08-12T01:44:28.279Z,13.46
2018-08-12T01:45:28.176Z,13.35
2018-08-12T01:46:28.086Z,13.42
2018-08-12T01:47:27.982Z,13.41
2018-08-12T01:48:27.881Z,13.41
2018-08-12T01:49:27.788Z,13.37
2018-08-12T01:50:27.685Z,13.33
2018-08-12T01:51:27.582Z,13.38
2018-08-12T01:52:27.491Z,13.30
2018-08-12T01:53:27.388Z,13.31
2018-08-12T01:54:27.285Z,13.18
2018-08-12T01:55:27.195Z,13.28
2018-08-12T01:56:27.089Z,13.27
2018-08-12T01:57:26.988Z,13.25
2018-08-12T01:58:27.196Z,13.37
2018-08-12T01:59:26.793Z,13.38
2018-08-12T02:00:26.702Z,13.38
2018-08-12T02:01:26.598Z,13.35
2018-08-12T02:02:26.494Z,13.38
2018-08-12T02:03:26.405Z,13.33
2018-08-12T02:04:26.302Z,13.31
2018-08-12T02:05:26.198Z,13.33
2018-08-12T02:06:26.106Z,13.39
2018-08-12T02:07:26.003Z,13.38
2018-08-12T02:08:26.151Z,13.35
2018-08-12T02:09:25.810Z,13.33
2018-08-12T02:10:25.707Z,13.44
2018-08-12T02:11:25.604Z,13.37
2018-08-12T02:12:25.525Z,13.37
2018-08-12T02:13:25.408Z,13.42
2018-08-12T02:14:25.315Z,13.44
2018-08-12T02:15:25.217Z,13.38
2018-08-12T02:16:25.113Z,13.38
2018-08-12T02:17:25.008Z,13.44
2018-08-12T02:18:24.919Z,13.42
2018-08-12T02:19:24.813Z,13.46
2018-08-12T02:20:24.710Z,13.46
2018-08-12T02:21:24.619Z,13.42
2018-08-12T02:22:24.517Z,13.44
2018-08-12T02:23:24.413Z,13.33
2018-08-12T02:24:24.322Z,13.37
2018-08-12T02:25:24.231Z,13.33
2018-08-12T02:26:24.116Z,13.28
2018-08-12T02:27:24.013Z,13.38
2018-08-12T02:28:23.922Z,13.33
2018-08-12T02:29:23.819Z,13.23
2018-08-12T02:30:23.716Z,13.31
2018-08-12T02:31:23.625Z,13.23
2018-08-12T02:32:23.521Z,13.28
2018-08-12T02:33:23.418Z,13.25
2018-08-12T02:34:23.327Z,13.23
2018-08-12T02:35:23.228Z,13.23
2018-08-12T02:36:23.129Z,13.20
2018-08-12T02:37:23.030Z,13.18
2018-08-12T02:38:22.940Z,13.13
2018-08-12T02:39:22.826Z,13.18
2018-08-12T02:40:22.724Z,13.15
2018-08-12T02:41:22.629Z,13.09
2018-08-12T02:42:22.526Z,13.19
2018-08-12T02:43:22.425Z,13.23
2018-08-12T02:44:22.334Z,13.25
2018-08-12T02:45:22.228Z,13.25
2018-08-12T02:46:22.137Z,13.22
2018-08-12T02:47:22.034Z,13.30
2018-08-12T02:48:21.940Z,13.25
2018-08-12T02:49:21.827Z,13.27
2018-08-12T02:50:21.736Z,13.27
2018-08-12T02:51:21.632Z,13.25
2018-08-12T02:52:21.530Z,13.22
2018-08-12T02:53:21.428Z,13.30
2018-08-12T02:54:21.337Z,13.28
2018-08-12T02:55:21.233Z,13.22
2018-08-12T02:56:21.130Z,13.22
2018-08-12T02:57:21.038Z,13.19
2018-08-12T02:58:20.935Z,13.19
2018-08-12T02:59:20.831Z,13.16
2018-08-12T03:00:20.740Z,13.22
2018-08-12T03:01:20.639Z,13.13
2018-08-12T03:02:20.538Z,13.20
2018-08-12T03:03:20.443Z,13.19
2018-08-12T03:04:20.340Z,13.15
2018-08-12T03:05:20.238Z,13.20
2018-08-12T03:06:20.133Z,13.19
2018-08-12T03:07:20.046Z,13.20
2018-08-12T03:08:19.939Z,13.11
2018-08-12T03:09:19.837Z,13.09
2018-08-12T03:10:19.744Z,13.13
2018-08-12T03:11:19.644Z,13.16
2018-08-12T03:12:19.538Z,13.04
2018-08-12T03:13:19.452Z,13.20
2018-08-12T03:14:19.345Z,13.12
2018-08-12T03:15:19.241Z,13.25
2018-08-12T03:16:19.147Z,13.23
2018-08-12T03:17:19.046Z,13.25
2018-08-12T03:18:18.943Z,13.28
2018-08-12T03:19:18.840Z,13.23
2018-08-12T03:20:18.751Z,13.30
2018-08-12T03:21:18.649Z,13.33
2018-08-12T03:22:18.583Z,13.23
2018-08-12T03:23:18.702Z,13.31
2018-08-12T03:24:18.349Z,13.33
2018-08-12T03:25:18.248Z,13.31
2018-08-12T03:26:18.155Z,13.42
2018-08-12T03:27:18.052Z,13.37
2018-08-12T03:28:17.948Z,13.27
2018-08-12T03:29:17.849Z,13.28
2018-08-12T03:30:17.834Z,13.28
2018-08-12T03:31:17.650Z,13.23
2018-08-12T03:32:17.549Z,13.23
2018-08-12T03:33:17.457Z,13.27
2018-08-12T03:34:17.353Z,13.30
2018-08-12T03:35:17.250Z,13.27
2018-08-12T03:36:17.149Z,13.31
2018-08-12T03:37:17.055Z,13.28
2018-08-12T03:38:16.952Z,13.27
2018-08-12T03:39:16.862Z,13.39
2018-08-12T03:40:16.759Z,13.30
2018-08-12T03:41:16.655Z,13.37
2018-08-12T03:42:16.552Z,13.38
2018-08-12T03:43:16.714Z,13.33
2018-08-12T03:44:16.358Z,13.33
2018-08-12T03:45:16.257Z,13.38
2018-08-12T03:46:16.165Z,13.37
2018-08-12T03:47:16.063Z,13.38
2018-08-12T03:48:15.954Z,13.38
2018-08-12T03:49:15.856Z,13.38
2018-08-12T03:50:15.763Z,13.38
2018-08-12T03:51:15.660Z,13.41
2018-08-12T03:52:15.556Z,13.28
2018-08-12T03:53:15.476Z,13.37
2018-08-12T03:54:15.363Z,13.38
2018-08-12T03:55:15.259Z,13.46
2018-08-12T03:56:15.168Z,13.35
2018-08-12T03:57:15.064Z,13.28
2018-08-12T03:58:14.965Z,13.42
2018-08-12T03:59:14.871Z,13.25
2018-08-12T04:00:14.768Z,13.35
2018-08-12T04:01:14.665Z,13.47
2018-08-12T04:02:14.597Z,13.54
2018-08-12T04:03:14.470Z,13.50
2018-08-12T04:04:14.366Z,13.54
2018-08-12T04:05:14.264Z,13.53
2018-08-12T04:06:14.173Z,13.49
2018-08-12T04:07:14.070Z,13.67
2018-08-12T04:08:13.966Z,13.57
2018-08-12T04:09:13.878Z,13.67
2018-08-12T04:10:13.772Z,13.62
2018-08-12T04:11:13.668Z,13.67
2018-08-12T04:12:13.578Z,13.70
2018-08-12T04:13:13.475Z,13.70
2018-08-12T04:14:13.372Z,13.74
2018-08-12T04:15:13.280Z,13.72
2018-08-12T04:16:13.177Z,13.75
2018-08-12T04:17:13.076Z,13.77
2018-08-12T04:18:12.984Z,13.86
2018-08-12T04:19:12.880Z,13.81
2018-08-12T04:20:12.785Z,13.90
2018-08-12T04:21:12.685Z,13.89
2018-08-12T04:22:12.582Z,13.90
2018-08-12T04:23:12.728Z,13.92
2018-08-12T04:24:12.389Z,14.00
2018-08-12T04:25:12.286Z,13.99
2018-08-12T04:26:12.182Z,14.08
2018-08-12T04:27:12.091Z,14.12
2018-08-12T04:28:12.000Z,14.18
2018-08-12T04:29:11.897Z,14.15
2018-08-12T04:30:11.794Z,14.36
2018-08-12T04:31:11.690Z,14.40
2018-08-12T04:32:11.587Z,14.48
2018-08-12T04:33:11.495Z,14.91
2018-08-12T04:34:11.393Z,15.33
2018-08-12T04:35:11.290Z,15.62
2018-08-12T04:36:11.199Z,15.98
2018-08-12T04:37:11.096Z,16.23
2018-08-12T04:38:11.004Z,16.64
2018-08-12T04:39:10.903Z,16.68
2018-08-12T04:40:10.799Z,16.81
2018-08-12T04:41:10.709Z,16.91
2018-08-12T04:42:10.603Z,17.08
2018-08-12T04:43:10.762Z,17.29
2018-08-12T04:44:10.408Z,17.41
2018-08-12T04:45:10.319Z,17.64
2018-08-12T04:46:10.292Z,17.76
2018-08-12T04:47:10.124Z,17.89
2018-08-12T04:48:10.021Z,17.98
2018-08-12T04:49:09.930Z,18.04
2018-08-12T04:50:09.827Z,18.08
2018-08-12T04:51:09.738Z,18.08
2018-08-12T04:52:09.632Z,18.37
2018-08-12T04:53:09.542Z,18.43
2018-08-12T04:54:09.439Z,18.55
2018-08-12T04:55:09.347Z,18.68
2018-08-12T04:56:09.244Z,18.68
2018-08-12T04:57:09.154Z,18.92
2018-08-12T04:58:09.051Z,18.90
2018-08-12T04:59:08.959Z,19.07
2018-08-12T05:00:08.857Z,19.12
2018-08-12T05:01:08.776Z,19.16
2018-08-12T05:02:08.674Z,19.37
2018-08-12T05:03:08.821Z,19.63
2018-08-12T05:04:08.480Z,19.64
2018-08-12T05:05:08.377Z,19.70
2018-08-12T05:06:08.286Z,19.89
2018-08-12T05:07:08.185Z,19.91
2018-08-12T05:08:08.092Z,19.96
2018-08-12T05:09:08.015Z,20.19
2018-08-12T05:10:07.898Z,20.36
2018-08-12T05:11:07.808Z,20.36
2018-08-12T05:12:07.717Z,20.65
2018-08-12T05:13:07.614Z,20.65
2018-08-12T05:14:07.523Z,20.78
2018-08-12T05:15:07.431Z,20.93
2018-08-12T05:16:07.329Z,20.99
2018-08-12T05:17:07.238Z,20.97
2018-08-12T05:18:07.148Z,20.96
2018-08-12T05:19:07.057Z,21.07
2018-08-12T05:20:06.953Z,21.14
2018-08-12T05:21:06.877Z,21.36
2018-08-12T05:22:06.771Z,21.33
2018-08-12T05:23:06.920Z,21.22
2018-08-12T05:24:06.576Z,21.35
2018-08-12T05:25:06.485Z,21.45
2018-08-12T05:26:06.408Z,21.52
2018-08-12T05:27:06.293Z,21.62
2018-08-12T05:28:06.201Z,21.80
2018-08-12T05:29:06.110Z,22.02
2018-08-12T05:30:06.020Z,22.14
2018-08-12T05:31:05.929Z,22.11
2018-08-12T05:32:05.827Z,22.29
2018-08-12T05:33:05.737Z,22.36
2018-08-12T05:34:05.643Z,22.43
2018-08-12T05:35:05.557Z,22.50
2018-08-12T05:36:05.471Z,22.55
2018-08-12T05:37:05.361Z,22.68
2018-08-12T05:38:05.268Z,22.94
2018-08-12T05:39:05.177Z,22.99
2018-08-12T05:40:05.088Z,23.05
2018-08-12T05:41:04.995Z,23.23
2018-08-12T05:42:04.905Z,23.32
2018-08-12T05:43:05.063Z,23.39
2018-08-12T05:44:04.711Z,23.44
2018-08-12T05:45:04.621Z,23.76
2018-08-12T05:46:04.529Z,23.78
2018-08-12T05:47:04.439Z,23.87
2018-08-12T05:48:04.349Z,23.65
2018-08-12T05:49:04.257Z,23.80
2018-08-12T05:50:04.166Z,23.96
2018-08-12T05:51:04.160Z,24.17
2018-08-12T05:52:03.990Z,24.23
2018-08-12T05:53:03.894Z,24.39
2018-08-12T05:54:03.791Z,24.55
2018-08-12T05:55:03.699Z,24.61
2018-08-12T05:56:03.610Z,24.70
2018-08-12T05:57:03.519Z,24.89
2018-08-12T05:58:03.427Z,24.98
2018-08-12T05:59:03.337Z,25.16
2018-08-12T06:00:03.245Z,25.40
2018-08-12T06:01:03.154Z,25.51
2018-08-12T06:02:03.064Z,25.60
2018-08-12T06:03:02.972Z,25.90
2018-08-12T06:04:02.881Z,25.85
2018-08-12T06:05:02.792Z,25.90
2018-08-12T06:06:02.703Z,25.84
2018-08-12T06:07:02.616Z,25.54
2018-08-12T06:08:02.519Z,25.48
2018-08-12T06:09:02.430Z,25.70
2018-08-12T06:10:02.339Z,25.88
2018-08-12T06:11:02.253Z,25.80
2018-08-12T06:12:02.159Z,26.00
2018-08-12T06:13:02.064Z,26.03
2018-08-12T06:14:01.978Z,26.22
2018-08-12T06:15:01.887Z,26.15
2018-08-12T06:16:01.805Z,26.07
2018-08-12T06:17:01.715Z,26.06
2018-08-12T06:18:01.623Z,25.84
2018-08-12T06:19:01.534Z,26.09
2018-08-12T06:20:01.441Z,26.00
2018-08-12T06:21:01.357Z,25.81
2018-08-12T06:22:01.260Z,25.88
2018-08-12T06:23:01.171Z,26.07
2018-08-12T06:24:01.078Z,26.21
2018-08-12T06:25:00.988Z,26.37
2018-08-12T06:26:00.897Z,26.71
2018-08-12T06:27:00.818Z,26.93
2018-08-12T06:28:00.729Z,27.00
2018-08-12T06:29:00.637Z,27.20
2018-08-12T06:30:00.546Z,27.05
2018-08-12T06:31:00.456Z,27.27
2018-08-12T06:32:00.368Z,27.11
2018-08-12T06:33:00.273Z,27.36
2018-08-12T06:34:00.184Z,27.10
2018-08-12T06:35:00.107Z,27.02
2018-08-12T06:36:00.016Z,27.15
2018-08-12T06:36:59.924Z,27.22
2018-08-12T06:38:00.082Z,27.47
2018-08-12T06:38:59.741Z,27.70
2018-08-12T06:39:59.712Z,28.02
2018-08-12T06:40:59.572Z,28.26
2018-08-12T06:41:59.482Z,28.27
2018-08-12T06:42:59.390Z,28.38
2018-08-12T06:43:59.301Z,28.35
2018-08-12T06:44:59.210Z,28.35
2018-08-12T06:45:59.133Z,28.35
2018-08-12T06:46:59.040Z,28.35
2018-08-12T06:47:58.949Z,28.57
2018-08-12T06:48:58.861Z,28.74
2018-08-12T06:49:58.780Z,28.49
2018-08-12T06:50:58.688Z,28.51
2018-08-12T06:51:58.618Z,28.49
2018-08-12T06:52:58.508Z,28.60
2018-08-12T06:53:58.417Z,28.33
2018-08-12T06:54:58.327Z,28.45
2018-08-12T06:55:58.247Z,28.37
2018-08-12T06:56:58.157Z,28.14
2018-08-12T06:57:58.066Z,28.12
2018-08-12T06:58:57.976Z,28.35
2018-08-12T06:59:57.897Z,28.35
2018-08-12T07:00:57.805Z,28.26
2018-08-12T07:01:57.717Z,28.29
2018-08-12T07:02:57.888Z,28.32
2018-08-12T07:03:57.545Z,28.41
2018-08-12T07:04:57.457Z,28.37
2018-08-12T07:05:57.365Z,28.76
2018-08-12T07:06:57.286Z,28.75
2018-08-12T07:07:57.197Z,28.94
2018-08-12T07:08:57.125Z,29.14
2018-08-12T07:09:57.015Z,28.62
2018-08-12T07:10:56.937Z,28.39
2018-08-12T07:11:56.845Z,28.41
2018-08-12T07:12:56.754Z,28.64
2018-08-12T07:13:56.676Z,28.93
2018-08-12T07:14:56.580Z,29.14
2018-08-12T07:15:56.493Z,29.31
2018-08-12T07:16:56.415Z,29.36
2018-08-12T07:17:56.325Z,28.89
2018-08-12T07:18:56.234Z,28.89
2018-08-12T07:19:56.157Z,29.16
2018-08-12T07:20:56.065Z,29.19
2018-08-12T07:21:55.981Z,28.75
2018-08-12T07:22:55.896Z,28.91
2018-08-12T07:23:55.805Z,28.89
2018-08-12T07:24:55.714Z,28.82
2018-08-12T07:25:55.625Z,28.84
2018-08-12T07:26:55.544Z,29.04
2018-08-12T07:27:55.454Z,29.08
2018-08-12T07:28:55.377Z,29.20
2018-08-12T07:29:55.288Z,29.32
2018-08-12T07:30:55.195Z,29.44
2018-08-12T07:31:55.119Z,29.44
2018-08-12T07:32:55.057Z,29.73
2018-08-12T07:33:54.935Z,29.88
2018-08-12T07:34:54.857Z,30.05
2018-08-12T07:35:54.765Z,30.19
2018-08-12T07:36:54.686Z,29.56
2018-08-12T07:37:54.596Z,29.63
2018-08-12T07:38:54.505Z,28.96
2018-08-12T07:39:54.426Z,29.01
2018-08-12T07:40:54.336Z,29.05
2018-08-12T07:41:54.245Z,29.39
2018-08-12T07:42:54.170Z,29.44
2018-08-12T07:43:54.077Z,29.27
2018-08-12T07:44:53.985Z,29.24
2018-08-12T07:45:53.907Z,29.12
2018-08-12T07:46:53.817Z,28.85
2018-08-12T07:47:53.725Z,28.89
2018-08-12T07:48:53.738Z,28.64
2018-08-12T07:49:53.556Z,28.19
2018-08-12T07:50:53.465Z,28.00
2018-08-12T07:51:53.377Z,27.70
2018-08-12T07:52:53.284Z,27.44
2018-08-12T07:53:53.207Z,26.90
2018-08-12T07:54:53.115Z,26.37
2018-08-12T07:55:53.047Z,26.06
2018-08-12T07:56:52.934Z,25.68
2018-08-12T07:57:53.144Z,25.21
2018-08-12T07:58:52.755Z,24.74
2018-08-12T07:59:52.661Z,24.55
2018-08-12T08:00:52.570Z,24.51
2018-08-12T08:01:52.480Z,24.50
2018-08-12T08:02:52.401Z,24.36
2018-08-12T08:03:52.310Z,24.14
2018-08-12T08:04:52.222Z,24.14
2018-08-12T08:05:52.129Z,23.95
2018-08-12T08:06:52.037Z,23.80
2018-08-12T08:07:51.950Z,23.81
2018-08-12T08:08:51.855Z,23.80
2018-08-12T08:09:51.765Z,23.96
2018-08-12T08:10:51.674Z,24.01
2018-08-12T08:11:51.584Z,24.08
2018-08-12T08:12:51.493Z,24.06
2018-08-12T08:13:51.402Z,23.93
2018-08-12T08:14:51.311Z,23.96
2018-08-12T08:15:51.222Z,23.95
2018-08-12T08:16:51.129Z,23.76
2018-08-12T08:17:51.027Z,23.81
2018-08-12T08:18:50.947Z,23.78
2018-08-12T08:19:50.907Z,23.71
2018-08-12T08:20:50.766Z,23.77
2018-08-12T08:21:50.662Z,23.74
2018-08-12T08:22:50.573Z,23.76
2018-08-12T08:23:50.481Z,23.51
2018-08-12T08:24:50.393Z,23.51
2018-08-12T08:25:50.371Z,23.61
2018-08-12T08:26:50.217Z,23.73
2018-08-12T08:27:50.118Z,23.81
2018-08-12T08:28:50.028Z,23.80
2018-08-12T08:29:49.936Z,23.92
2018-08-12T08:30:49.833Z,23.91
2018-08-12T08:31:49.940Z,24.06
2018-08-12T08:32:49.665Z,24.05
2018-08-12T08:33:49.562Z,24.10
2018-08-12T08:34:49.474Z,24.24
2018-08-12T08:35:49.382Z,24.36
2018-08-12T08:36:49.287Z,24.42
2018-08-12T08:37:49.199Z,24.26
2018-08-12T08:38:49.106Z,24.40
2018-08-12T08:39:49.004Z,24.51
2018-08-12T08:40:48.913Z,24.48
2018-08-12T08:41:48.821Z,24.51
2018-08-12T08:42:48.731Z,24.51
2018-08-12T08:43:48.644Z,24.57
2018-08-12T08:44:48.550Z,24.69
2018-08-12T08:45:48.458Z,24.85
2018-08-12T08:46:48.368Z,25.11
2018-08-12T08:47:48.278Z,24.86
2018-08-12T08:48:48.173Z,24.98
2018-08-12T08:49:48.086Z,25.29
2018-08-12T08:50:48.034Z,25.38
2018-08-12T08:51:47.904Z,25.58
2018-08-12T08:52:47.811Z,25.80
2018-08-12T08:53:47.719Z,26.10
2018-08-12T08:54:47.628Z,26.36
2018-08-12T08:55:47.632Z,26.70
2018-08-12T08:56:47.435Z,27.08
2018-08-12T08:57:47.344Z,27.39
2018-08-12T08:58:47.254Z,27.86
2018-08-12T08:59:47.161Z,28.11
2018-08-12T09:00:47.073Z,28.63
2018-08-12T09:01:46.993Z,29.24
2018-08-12T09:02:46.893Z,29.49
2018-08-12T09:03:46.788Z,29.86
2018-08-12T09:04:46.695Z,30.13
2018-08-12T09:05:46.605Z,30.10
2018-08-12T09:06:46.513Z,30.54
2018-08-12T09:07:46.423Z,30.81
2018-08-12T09:08:46.608Z,30.96
2018-08-12T09:09:46.242Z,31.06
2018-08-12T09:10:46.142Z,31.64
2018-08-12T09:11:46.047Z,31.59
2018-08-12T09:12:45.957Z,31.76
2018-08-12T09:13:45.865Z,31.46
2018-08-12T09:14:45.776Z,31.62
2018-08-12T09:15:45.683Z,31.73
2018-08-12T09:16:45.597Z,31.96
2018-08-12T09:17:45.502Z,32.07
2018-08-12T09:18:45.413Z,32.27
2018-08-12T09:19:45.322Z,32.38
2018-08-12T09:20:45.242Z,32.27
2018-08-12T09:21:45.152Z,32.45
2018-08-12T09:22:45.063Z,32.56
2018-08-12T09:23:44.970Z,32.53
2018-08-12T09:24:44.898Z,32.71
2018-08-12T09:25:44.801Z,32.82
2018-08-12T09:26:44.710Z,31.70
2018-08-12T09:27:44.633Z,30.65
2018-08-12T09:28:44.541Z,30.75
2018-08-12T09:29:44.451Z,30.09
2018-08-12T09:30:44.375Z,30.63
2018-08-12T09:31:44.281Z,31.25
2018-08-12T09:32:44.202Z,31.44
2018-08-12T09:33:44.112Z,31.71
2018-08-12T09:34:44.034Z,31.97
2018-08-12T09:35:43.942Z,32.34
2018-08-12T09:36:43.864Z,32.80
2018-08-12T09:37:44.075Z,33.11
2018-08-12T09:38:43.695Z,33.24
2018-08-12T09:39:43.604Z,33.39
2018-08-12T09:40:43.532Z,33.42
2018-08-12T09:41:43.436Z,33.39
2018-08-12T09:42:43.357Z,33.37
2018-08-12T09:43:43.278Z,33.36
2018-08-12T09:44:43.188Z,32.21
2018-08-12T09:45:43.109Z,32.14
2018-08-12T09:46:43.021Z,31.85
2018-08-12T09:47:42.943Z,32.33
2018-08-12T09:48:42.867Z,32.64
2018-08-12T09:49:42.772Z,32.52
2018-08-12T09:50:42.693Z,32.73
2018-08-12T09:51:42.747Z,32.49
2018-08-12T09:52:42.536Z,32.12
2018-08-12T09:53:42.446Z,30.63
2018-08-12T09:54:42.368Z,30.37
2018-08-12T09:55:42.278Z,29.60
2018-08-12T09:56:42.198Z,29.63
2018-08-12T09:57:42.119Z,29.26
2018-08-12T09:58:42.042Z,29.14
2018-08-12T09:59:42.039Z,29.26
2018-08-12T10:00:41.962Z,30.25
2018-08-12T10:01:41.872Z,30.96
2018-08-12T10:02:41.790Z,31.28
2018-08-12T10:03:41.701Z,31.70
2018-08-12T10:04:41.622Z,31.81
2018-08-12T10:05:41.575Z,31.93
2018-08-12T10:06:41.453Z,32.14
2018-08-12T10:07:41.374Z,32.31
2018-08-12T10:08:41.296Z,32.29
2018-08-12T10:09:41.206Z,32.01
2018-08-12T10:10:41.128Z,32.12
2018-08-12T10:11:41.050Z,31.62
2018-08-12T10:12:40.957Z,30.90
2018-08-12T10:13:40.879Z,30.43
2018-08-12T10:14:40.800Z,30.69
2018-08-12T10:15:40.809Z,30.70
2018-08-12T10:16:40.632Z,30.84
2018-08-12T10:17:40.542Z,31.09
2018-08-12T10:18:40.464Z,30.80
2018-08-12T10:19:40.384Z,30.92
2018-08-12T10:20:40.294Z,31.09
2018-08-12T10:21:40.288Z,31.37
2018-08-12T10:22:40.138Z,30.91
2018-08-12T10:23:40.047Z,31.06
2018-08-12T10:24:39.967Z,31.44
2018-08-12T10:25:39.890Z,31.85
2018-08-12T10:26:39.801Z,32.11
2018-08-12T10:27:39.721Z,32.26
2018-08-12T10:28:39.643Z,32.04
2018-08-12T10:29:39.565Z,32.01
2018-08-12T10:30:39.473Z,32.23
2018-08-12T10:31:39.395Z,32.51
2018-08-12T10:32:39.317Z,33.08
2018-08-12T10:33:39.239Z,33.15
2018-08-12T10:34:39.149Z,33.81
2018-08-12T10:35:39.070Z,33.96
2018-08-12T10:36:38.992Z,34.30
2018-08-12T10:37:39.164Z,34.73
2018-08-12T10:38:38.835Z,34.05
2018-08-12T10:39:38.757Z,33.92
2018-08-12T10:40:38.667Z,33.61
2018-08-12T10:41:38.600Z,32.37
2018-08-12T10:42:38.509Z,31.73
2018-08-12T10:43:38.430Z,31.52
2018-08-12T10:44:38.352Z,32.22
2018-08-12T10:45:38.274Z,32.85
2018-08-12T10:46:38.198Z,33.09
2018-08-12T10:47:38.117Z,33.19
2018-08-12T10:48:38.038Z,33.02
2018-08-12T10:49:37.950Z,31.64
2018-08-12T10:50:37.871Z,30.43
2018-08-12T10:51:37.795Z,30.46
2018-08-12T10:52:37.713Z,30.44
2018-08-12T10:53:37.636Z,30.68
2018-08-12T10:54:37.557Z,30.94
2018-08-12T10:55:37.466Z,31.55
2018-08-12T10:56:37.399Z,31.55
2018-08-12T10:57:37.309Z,31.99
2018-08-12T10:58:37.230Z,32.11
2018-08-12T10:59:37.153Z,32.56
2018-08-12T11:00:37.062Z,32.83
2018-08-12T11:01:36.984Z,32.37
2018-08-12T11:02:36.905Z,33.46
2018-08-12T11:03:36.827Z,33.55
2018-08-12T11:04:36.737Z,34.16
2018-08-12T11:05:36.657Z,33.73
2018-08-12T11:06:36.579Z,34.05
2018-08-12T11:07:36.530Z,34.02
2018-08-12T11:08:36.423Z,33.23
2018-08-12T11:09:36.332Z,32.55
2018-08-12T11:10:36.254Z,33.11
2018-08-12T11:11:36.177Z,33.12
2018-08-12T11:12:36.112Z,32.71
2018-08-12T11:13:36.022Z,33.27
2018-08-12T11:14:35.940Z,33.50
2018-08-12T11:15:35.851Z,33.42
2018-08-12T11:16:35.771Z,33.80
2018-08-12T11:17:35.692Z,33.61
2018-08-12T11:18:35.616Z,33.67
2018-08-12T11:19:35.538Z,34.17
2018-08-12T11:20:35.537Z,34.05
2018-08-12T11:21:35.380Z,34.14
2018-08-12T11:22:35.301Z,34.24
2018-08-12T11:23:35.210Z,33.68
2018-08-12T11:24:35.133Z,33.57
2018-08-12T11:25:35.055Z,33.27
2018-08-12T11:26:34.976Z,33.08
2018-08-12T11:27:34.907Z,32.74
2018-08-12T11:28:34.870Z,32.38
2018-08-12T11:29:34.741Z,31.89
2018-08-12T11:30:34.662Z,31.06
2018-08-12T11:31:34.584Z,30.16
2018-08-12T11:32:34.494Z,29.73
2018-08-12T11:33:34.415Z,29.39
2018-08-12T11:34:34.336Z,29.20
2018-08-12T11:35:34.258Z,29.32
2018-08-12T11:36:34.092Z,29.41
2018-08-12T11:37:34.019Z,29.10
2018-08-12T11:38:33.925Z,29.29
2018-08-12T11:39:33.845Z,29.16
2018-08-12T11:40:33.767Z,28.81
2018-08-12T11:41:33.677Z,28.44
2018-08-12T11:42:33.847Z,28.39
2018-08-12T11:43:33.520Z,28.33
2018-08-12T11:44:33.429Z,28.00
2018-08-12T11:45:33.351Z,27.83
2018-08-12T11:46:33.263Z,27.74
2018-08-12T11:47:33.249Z,27.70
2018-08-12T11:48:33.102Z,27.73
2018-08-12T11:49:33.012Z,27.59
2018-08-12T11:50:32.921Z,27.47
2018-08-12T11:51:32.842Z,27.47
2018-08-12T11:52:32.753Z,27.27
2018-08-12T11:53:32.674Z,27.27
2018-08-12T11:54:32.582Z,27.36
2018-08-12T11:55:32.492Z,27.40
2018-08-12T11:56:32.414Z,27.47
2018-08-12T11:57:32.323Z,27.48
2018-08-12T11:58:32.233Z,27.47
2018-08-12T11:59:32.142Z,27.49
2018-08-12T12:00:32.062Z,27.58
2018-08-12T12:01:31.973Z,27.35
2018-08-12T12:02:31.881Z,27.26
2018-08-12T12:03:31.791Z,27.21
2018-08-12T12:04:31.731Z,27.14
2018-08-12T12:05:31.621Z,27.18
2018-08-12T12:06:31.531Z,27.17
2018-08-12T12:07:31.440Z,27.11
2018-08-12T12:08:31.350Z,27.35
2018-08-12T12:09:31.272Z,27.77
2018-08-12T12:10:31.180Z,28.11
2018-08-12T12:11:31.090Z,28.02
2018-08-12T12:12:30.998Z,27.98
2018-08-12T12:13:30.908Z,28.01
2018-08-12T12:14:30.817Z,27.86
2018-08-12T12:15:30.726Z,27.71
2018-08-12T12:16:30.648Z,27.78
2018-08-12T12:17:30.570Z,27.85
2018-08-12T12:18:30.466Z,27.58
2018-08-12T12:19:30.375Z,27.47
2018-08-12T12:20:30.317Z,27.29
2018-08-12T12:21:30.194Z,26.99
2018-08-12T12:22:30.129Z,26.93
2018-08-12T12:23:30.027Z,27.12
2018-08-12T12:24:29.933Z,27.14
2018-08-12T12:25:29.844Z,27.17
2018-08-12T12:26:29.766Z,27.18
2018-08-12T12:27:29.676Z,27.14
2018-08-12T12:28:29.584Z,27.30
2018-08-12T12:29:29.491Z,27.47
2018-08-12T12:30:29.413Z,27.55
2018-08-12T12:31:29.324Z,27.64
2018-08-12T12:32:29.231Z,27.68
2018-08-12T12:33:29.141Z,27.70
2018-08-12T12:34:29.053Z,27.70
2018-08-12T12:35:28.964Z,27.82
2018-08-12T12:36:28.883Z,27.75
2018-08-12T12:37:28.790Z,27.73
2018-08-12T12:38:28.703Z,27.65
2018-08-12T12:39:28.608Z,27.64
2018-08-12T12:40:28.519Z,27.42
2018-08-12T12:41:28.428Z,27.42
2018-08-12T12:42:28.338Z,27.52
2018-08-12T12:43:28.263Z,27.48
2018-08-12T12:44:28.167Z,27.45
2018-08-12T12:45:28.078Z,27.36
2018-08-12T12:46:27.986Z,27.29
2018-08-12T12:47:27.904Z,27.27
2018-08-12T12:48:27.804Z,27.25
2018-08-12T12:49:27.753Z,27.21
2018-08-12T12:50:27.671Z,27.36
2018-08-12T12:51:27.533Z,27.33